Time;durP1;ratioP1;P1;durP2;ratioP2;P2;SDS_P1;SDS_P2;PMS_P1;PMS_P2;Temp;Humidity;BMP_temperature;BMP_pressure;BME280_temperature;BME280_humidity;BME280_pressure;Samples;Min_cycle;Max_cycle;Signal;HPM_P1;HPM_P2
2022/03/07 00:02:11;;;;;;;4.23;2.53;;;1.00;93.60;0.70;101459.00;;;;4955408;28;88097;-66
2022/03/07 00:04:36;;;;;;;3.07;2.53;;;1.10;93.50;0.70;101453.00;;;;4955233;28;88730;-66
2022/03/07 00:07:02;;;;;;;5.13;3.63;;;1.00;93.50;0.70;101458.00;;;;4954862;28;107385;-66
2022/03/07 00:09:28;;;;;;;5.87;3.07;;;1.00;93.60;0.70;101468.00;;;;4953673;28;97936;-66
2022/03/07 00:11:54;;;;;;;2.73;2.40;;;0.90;93.60;0.60;101467.00;;;;4954066;28;117667;-66
2022/03/07 00:14:20;;;;;;;3.33;2.77;;;1.00;93.90;0.60;101468.00;;;;4954465;28;95646;-67
2022/03/07 00:16:46;;;;;;;3.07;2.73;;;1.00;93.90;0.60;101471.00;;;;4954583;28;97478;-67
2022/03/07 00:19:12;;;;;;;2.20;2.00;;;1.50;94.20;0.60;101465.00;;;;4953792;28;91693;-66
2022/03/07 00:21:39;;;;;;;7.67;2.83;;;1.30;94.20;0.60;101458.00;;;;4954569;28;102010;-67
2022/03/07 00:24:07;;;;;;;3.47;2.50;;;1.60;94.30;0.60;101465.00;;;;4955114;28;87736;-66
2022/03/07 00:26:32;;;;;;;4.40;3.30;;;0.90;94.30;0.60;101466.00;;;;4954974;28;87796;-66
2022/03/07 00:28:58;;;;;;;3.80;3.07;;;1.30;94.50;0.60;101467.00;;;;4955747;28;87775;-66
2022/03/07 00:31:24;;;;;;;5.27;3.00;;;1.00;94.50;0.60;101466.00;;;;4954672;28;88357;-66
2022/03/07 00:33:50;;;;;;;3.00;2.50;;;0.90;94.80;0.60;101475.00;;;;4954694;28;118189;-66
2022/03/07 00:36:17;;;;;;;2.80;2.50;;;1.30;95.00;0.60;101459.00;;;;4955342;28;87615;-66
2022/03/07 00:38:42;;;;;;;2.70;2.50;;;0.90;94.90;0.60;101465.00;;;;4954146;28;87757;-66
2022/03/07 00:41:09;;;;;;;3.00;2.73;;;1.60;95.00;0.60;101461.00;;;;4953194;28;108149;-66
2022/03/07 00:43:36;;;;;;;5.83;2.43;;;0.90;94.90;0.60;101461.00;;;;4954541;28;95022;-66
2022/03/07 00:46:03;;;;;;;4.80;2.70;;;1.50;95.10;0.60;101460.00;;;;4955262;28;87835;-66
2022/03/07 00:48:28;;;;;;;4.03;2.80;;;0.80;94.90;0.60;101471.00;;;;4955550;28;87926;-67
2022/03/07 00:50:54;;;;;;;2.43;1.67;;;0.90;94.90;0.60;101459.00;;;;4954649;28;87912;-66
2022/03/07 00:53:23;;;;;;;2.47;2.10;;;0.90;94.90;0.50;101455.00;;;;4954352;28;116243;-66
2022/03/07 00:55:51;;;;;;;7.87;3.67;;;1.10;95.00;0.50;101467.00;;;;4954796;28;87712;-67
2022/03/07 00:58:17;;;;;;;4.10;2.90;;;1.30;95.10;0.50;101467.00;;;;4953921;28;87195;-67
2022/03/07 01:00:43;;;;;;;4.20;2.77;;;1.60;95.20;0.50;101464.00;;;;4954815;28;88482;-66
2022/03/07 01:03:11;;;;;;;3.50;3.20;;;0.80;95.30;0.50;101453.00;;;;4954424;28;87993;-66
2022/03/07 01:05:38;;;;;;;3.40;2.87;;;1.00;95.40;0.50;101460.00;;;;4953601;28;96843;-67
2022/03/07 01:08:05;;;;;;;3.20;2.57;;;0.80;95.40;0.50;101457.00;;;;4957945;28;88168;-67
2022/03/07 01:10:31;;;;;;;7.30;3.40;;;0.80;95.50;0.50;101453.00;;;;4955040;28;104361;-67
2022/03/07 01:12:57;;;;;;;2.47;2.27;;;1.80;96.00;0.50;101447.00;;;;4940055;28;88677;-66
2022/03/07 01:15:22;;;;;;;3.23;2.53;;;0.80;95.80;0.50;101452.00;;;;4957050;28;110370;-66
2022/03/07 01:17:48;;;;;;;2.43;2.23;;;0.80;95.80;0.50;101452.00;;;;4958943;28;88056;-67
2022/03/07 01:20:14;;;;;;;4.70;2.40;;;0.90;96.00;0.60;101453.00;;;;4957617;28;87617;-66
2022/03/07 01:22:43;;;;;;;4.33;2.80;;;0.80;96.30;0.60;101449.00;;;;4958008;28;102245;-67
2022/03/07 01:25:09;;;;;;;3.00;2.17;;;1.60;96.50;0.60;101444.00;;;;4957962;28;87964;-66
2022/03/07 01:27:35;;;;;;;4.23;3.20;;;0.90;96.30;0.60;101442.00;;;;4989818;28;87673;-66
2022/03/07 01:30:03;;;;;;;2.40;2.13;;;0.90;96.30;0.60;101453.00;;;;4970877;28;118558;-66
2022/03/07 01:32:29;;;;;;;3.47;2.77;;;1.10;96.50;0.60;101452.00;;;;4957514;28;88905;-66
2022/03/07 01:34:54;;;;;;;2.93;2.00;;;0.90;96.70;0.60;101448.00;;;;4955135;28;109176;-66
2022/03/07 01:37:20;;;;;;;2.93;2.03;;;0.90;97.00;0.60;101450.00;;;;4957012;28;109169;-66
2022/03/07 01:39:46;;;;;;;4.40;2.17;;;1.60;97.10;0.60;101456.00;;;;4956041;28;118637;-66
2022/03/07 01:42:11;;;;;;;5.27;2.73;;;1.00;97.00;0.60;101446.00;;;;4957462;28;87953;-66
2022/03/07 01:44:37;;;;;;;3.73;2.23;;;0.90;97.00;0.60;101444.00;;;;4956625;28;110813;-66
2022/03/07 01:47:05;;;;;;;2.50;2.30;;;1.70;97.30;0.60;101437.00;;;;4958110;28;87141;-66
2022/03/07 01:49:31;;;;;;;2.10;1.90;;;0.80;97.00;0.50;101435.00;;;;4956830;28;88404;-66
2022/03/07 01:51:57;;;;;;;3.53;2.20;;;1.20;97.10;0.50;101435.00;;;;4957131;28;98090;-66
2022/03/07 01:54:24;;;;;;;3.30;2.50;;;1.30;97.20;0.50;101426.00;;;;4956424;28;95325;-66
2022/03/07 01:56:52;;;;;;;2.77;2.47;;;0.70;97.10;0.50;101433.00;;;;4957776;28;87668;-67
2022/03/07 01:59:26;;;;;;;2.37;1.70;;;0.90;97.20;0.50;101429.00;;;;4957012;28;101627;-66
2022/03/07 02:01:53;;;;;;;4.60;2.77;;;0.80;97.20;0.50;101420.00;;;;4957183;28;88011;-66
2022/03/07 02:04:19;;;;;;;3.60;2.60;;;0.70;97.10;0.40;101421.00;;;;4956778;28;87701;-66
2022/03/07 02:06:47;;;;;;;3.87;2.13;;;0.70;97.20;0.40;101424.00;;;;4957219;28;87919;-66
2022/03/07 02:09:13;;;;;;;4.87;2.13;;;1.50;97.50;0.40;101419.00;;;;4961047;28;89367;-66
2022/03/07 02:11:39;;;;;;;3.47;2.13;;;0.60;97.20;0.30;101421.00;;;;4960504;28;88794;-66
2022/03/07 02:14:16;;;;;;;5.07;3.03;;;0.60;97.30;0.30;101419.00;;;;4957645;28;87619;-66
2022/03/07 02:16:43;;;;;;;5.23;1.77;;;0.60;97.40;0.20;101424.00;;;;4955098;28;93411;-67
2022/03/07 02:19:09;;;;;;;8.73;2.63;;;0.60;97.50;0.20;101410.00;;;;4956829;28;89035;-66
2022/03/07 02:21:36;;;;;;;4.80;2.57;;;0.50;97.50;0.20;101414.00;;;;4956780;28;89283;-66
2022/03/07 02:24:03;;;;;;;2.43;2.23;;;0.60;97.70;0.20;101423.00;;;;4956887;28;87774;-66
2022/03/07 02:26:30;;;;;;;4.83;2.33;;;0.60;97.80;0.20;101403.00;;;;4956823;28;87999;-66
2022/03/07 02:28:56;;;;;;;3.33;2.23;;;0.50;97.80;0.20;101413.00;;;;4954667;28;88788;-67
2022/03/07 02:31:22;;;;;;;3.23;2.40;;;0.50;97.90;0.20;101404.00;;;;4955384;28;117794;-67
2022/03/07 02:33:48;;;;;;;3.63;2.33;;;0.50;98.00;0.20;101393.00;;;;4956528;28;87868;-66
2022/03/07 02:36:14;;;;;;;3.57;2.67;;;0.50;98.10;0.20;101414.00;;;;4957192;28;86773;-66
2022/03/07 02:38:40;;;;;;;3.03;2.50;;;0.50;98.10;0.20;101402.00;;;;4956733;28;88388;-67
2022/03/07 02:41:06;;;;;;;3.83;2.73;;;0.40;98.20;0.20;101403.00;;;;4955458;28;118302;-67
2022/03/07 02:43:31;;;;;;;3.97;2.03;;;0.50;98.50;0.20;101419.00;;;;4955577;28;98763;-66
2022/03/07 02:45:58;;;;;;;3.00;2.43;;;0.50;98.70;0.20;101409.00;;;;4956396;28;92636;-66
2022/03/07 02:48:25;;;;;;;4.47;2.67;;;0.60;98.70;0.30;101418.00;;;;4954616;28;88984;-67
2022/03/07 02:50:51;;;;;;;3.53;2.30;;;1.30;99.00;0.30;101415.00;;;;4956753;28;89400;-67
2022/03/07 02:53:17;;;;;;;2.53;2.33;;;0.60;98.90;0.30;101412.00;;;;4956303;28;87773;-66
2022/03/07 02:55:43;;;;;;;1.97;1.70;;;0.60;99.00;0.30;101411.00;;;;4955347;28;100173;-67
2022/03/07 02:58:10;;;;;;;3.70;2.57;;;1.50;99.20;0.30;101411.00;;;;4956149;28;103652;-66
2022/03/07 03:00:36;;;;;;;3.50;2.63;;;0.70;99.00;0.30;101413.00;;;;4956813;28;87868;-66
2022/03/07 03:03:02;;;;;;;3.47;2.23;;;0.60;99.00;0.30;101413.00;;;;4956422;28;87615;-66
2022/03/07 03:05:28;;;;;;;3.60;2.97;;;0.60;99.10;0.30;101403.00;;;;4956521;28;92846;-67
2022/03/07 03:07:53;;;;;;;4.37;2.43;;;1.30;99.20;0.20;101408.00;;;;4955905;28;99488;-67
2022/03/07 03:10:20;;;;;;;3.20;2.43;;;0.50;99.10;0.20;101411.00;;;;4957621;28;119413;-67
2022/03/07 03:12:47;;;;;;;3.43;2.83;;;1.10;99.30;0.20;101406.00;;;;4963085;28;87833;-67
2022/03/07 03:15:14;;;;;;;3.53;2.47;;;0.60;99.20;0.20;101420.00;;;;4956398;28;87506;-67
2022/03/07 03:17:41;;;;;;;2.77;2.30;;;0.50;99.30;0.20;101409.00;;;;4955675;28;88690;-66
2022/03/07 03:20:12;;;;;;;2.80;2.43;;;0.40;99.20;0.20;101406.00;;;;4955538;28;88249;-67
2022/03/07 03:22:41;;;;;;;3.77;2.47;;;0.60;99.40;0.20;101418.00;;;;4956170;28;87795;-66
2022/03/07 03:25:09;;;;;;;4.37;2.30;;;0.50;99.40;0.20;101411.00;;;;4956782;28;87078;-68
2022/03/07 03:27:37;;;;;;;3.23;2.30;;;0.60;99.40;0.20;101406.00;;;;4956305;28;88822;-67
2022/03/07 03:30:06;;;;;;;3.07;2.33;;;0.50;99.50;0.20;101390.00;;;;4954984;28;105643;-66
2022/03/07 03:32:32;;;;;;;4.27;2.60;;;0.50;99.50;0.20;101399.00;;;;4955969;28;88879;-67
2022/03/07 03:34:58;;;;;;;3.93;2.60;;;0.60;99.50;0.20;101392.00;;;;4936028;28;91424;-66
2022/03/07 03:37:26;;;;;;;3.70;2.73;;;1.20;99.90;0.20;101397.00;;;;4935468;28;117607;-66
2022/03/07 03:39:53;;;;;;;6.30;3.27;;;0.50;99.70;0.20;101402.00;;;;4936328;28;88883;-66
2022/03/07 03:42:21;;;;;;;4.00;2.93;;;0.40;99.80;0.20;101391.00;;;;4955548;28;87849;-67
2022/03/07 03:44:48;;;;;;;3.97;3.27;;;0.50;99.80;0.20;101397.00;;;;4956916;28;88177;-67
2022/03/07 03:47:13;;;;;;;3.97;3.00;;;0.50;99.80;0.20;101396.00;;;;4955755;28;88121;-65
2022/03/07 03:49:39;;;;;;;6.67;3.10;;;0.50;99.90;0.20;101400.00;;;;4953361;28;102779;-65
2022/03/07 03:52:06;;;;;;;3.23;2.30;;;0.50;99.90;0.20;101400.00;;;;4955141;28;110199;-66
2022/03/07 03:54:32;;;;;;;3.07;2.30;;;0.50;99.90;0.20;101403.00;;;;4956126;28;87687;-66
2022/03/07 03:56:58;;;;;;;4.90;2.30;;;0.70;99.90;0.20;101410.00;;;;4954909;28;118651;-66
2022/03/07 03:59:24;;;;;;;3.60;2.33;;;0.50;99.90;0.20;101407.00;;;;4954713;28;118429;-65
2022/03/07 04:01:50;;;;;;;2.87;2.50;;;0.50;99.90;0.20;101408.00;;;;4954777;28;111460;-66
2022/03/07 04:04:16;;;;;;;3.23;2.30;;;0.50;99.90;0.20;101408.00;;;;4955096;28;87688;-67
2022/03/07 04:06:42;;;;;;;3.53;2.53;;;0.50;99.90;0.20;101406.00;;;;4954762;28;112611;-66
2022/03/07 04:09:11;;;;;;;2.80;2.43;;;0.50;99.90;0.20;101406.00;;;;4955345;28;88934;-65
2022/03/07 04:11:37;;;;;;;2.97;2.33;;;0.50;99.90;0.20;101399.00;;;;4955531;28;87839;-66
2022/03/07 04:14:02;;;;;;;3.40;2.10;;;0.50;99.90;0.20;101405.00;;;;4955765;28;87005;-66
2022/03/07 04:16:28;;;;;;;2.03;1.93;;;0.40;99.90;0.20;101404.00;;;;4953876;28;117557;-66
2022/03/07 04:18:54;;;;;;;3.07;2.23;;;0.40;99.90;0.10;101408.00;;;;4955629;28;92418;-65
2022/03/07 04:21:19;;;;;;;2.57;2.13;;;0.50;99.90;0.10;101405.00;;;;4954024;28;110156;-66
2022/03/07 04:23:45;;;;;;;2.40;2.20;;;0.50;99.90;0.00;101404.00;;;;4954504;28;109217;-66
2022/03/07 04:26:11;;;;;;;3.30;2.50;;;0.30;99.90;0.00;101398.00;;;;4953767;28;118176;-65
2022/03/07 04:28:36;;;;;;;3.13;2.07;;;0.30;99.90;0.00;101411.00;;;;4955327;28;96595;-65
2022/03/07 04:31:02;;;;;;;2.67;2.47;;;0.50;99.90;-0.10;101409.00;;;;4954232;28;110306;-69
2022/03/07 04:33:28;;;;;;;2.53;2.10;;;0.30;99.90;-0.10;101401.00;;;;4955165;28;95635;-67
2022/03/07 04:35:53;;;;;;;2.07;1.87;;;1.00;99.90;-0.20;101404.00;;;;4953734;28;118497;-67
2022/03/07 04:38:24;;;;;;;3.13;2.30;;;0.30;99.90;-0.20;101410.00;;;;4954626;28;117442;-67
2022/03/07 04:40:50;;;;;;;2.50;1.97;;;0.10;99.90;-0.20;101413.00;;;;4954370;28;87648;-68
2022/03/07 04:43:15;;;;;;;4.00;2.27;;;0.60;99.90;-0.20;101424.00;;;;4958660;28;89773;-67
2022/03/07 04:45:41;;;;;;;1.50;1.40;;;0.10;99.90;-0.30;101423.00;;;;4957065;28;117877;-67
2022/03/07 04:48:07;;;;;;;3.07;2.43;;;0.90;99.90;-0.30;101423.00;;;;4958002;28;118067;-67
2022/03/07 04:50:32;;;;;;;3.97;2.77;;;0.00;99.90;-0.30;101412.00;;;;4957880;28;111605;-67
2022/03/07 04:52:58;;;;;;;3.63;2.27;;;0.10;99.90;-0.40;101426.00;;;;4958261;28;103757;-67
2022/03/07 04:55:24;;;;;;;5.63;2.87;;;0.00;99.90;-0.40;101432.00;;;;4957594;28;88961;-67
2022/03/07 04:57:50;;;;;;;2.53;1.97;;;-0.10;99.90;-0.40;101424.00;;;;4957825;28;116048;-67
2022/03/07 05:00:16;;;;;;;4.33;2.47;;;0.00;99.90;-0.40;101434.00;;;;4958336;28;87862;-65
2022/03/07 05:02:43;;;;;;;4.63;2.20;;;0.00;99.90;-0.40;101439.00;;;;4959390;28;87005;-66
2022/03/07 05:05:09;;;;;;;1.83;1.73;;;0.00;99.90;-0.40;101446.00;;;;4957425;28;88592;-67
2022/03/07 05:07:34;;;;;;;2.53;2.33;;;-0.10;99.90;-0.40;101434.00;;;;4956875;28;88160;-66
2022/03/07 05:10:00;;;;;;;1.43;1.33;;;-0.10;99.90;-0.40;101436.00;;;;4955995;28;110856;-67
2022/03/07 05:12:26;;;;;;;2.13;1.93;;;0.70;99.90;-0.30;101438.00;;;;4958122;28;90746;-67
2022/03/07 05:14:51;;;;;;;2.17;1.90;;;-0.10;99.90;-0.30;101437.00;;;;4954714;28;116124;-67
2022/03/07 05:17:17;;;;;;;3.07;2.47;;;-0.10;99.90;-0.40;101441.00;;;;4957245;28;117765;-67
2022/03/07 05:19:45;;;;;;;3.47;2.23;;;-0.10;99.90;-0.40;101439.00;;;;4957882;28;109233;-67
2022/03/07 05:22:11;;;;;;;2.20;1.87;;;0.00;99.90;-0.40;101442.00;;;;4959010;28;88001;-67
2022/03/07 05:24:36;;;;;;;5.83;2.53;;;-0.10;99.90;-0.50;101445.00;;;;4956856;28;110219;-67
2022/03/07 05:27:03;;;;;;;1.97;1.73;;;-0.20;99.90;-0.50;101445.00;;;;4957343;28;116853;-68
2022/03/07 05:29:28;;;;;;;2.27;1.90;;;-0.10;99.90;-0.60;101443.00;;;;4988960;28;96013;-67
2022/03/07 05:31:54;;;;;;;6.97;2.40;;;-0.20;99.90;-0.60;101454.00;;;;4958543;28;88005;-66
2022/03/07 05:34:19;;;;;;;3.03;2.63;;;-0.40;99.90;-0.70;101447.00;;;;4953917;28;118247;-66
2022/03/07 05:36:46;;;;;;;2.27;2.03;;;-0.40;99.90;-0.80;101451.00;;;;4956657;28;118291;-66
2022/03/07 05:39:12;;;;;;;2.07;1.87;;;-0.40;99.90;-0.90;101448.00;;;;4958261;28;87653;-66
2022/03/07 05:41:38;;;;;;;4.10;1.93;;;-0.50;99.90;-1.00;101449.00;;;;4956221;28;87831;-67
2022/03/07 05:44:03;;;;;;;4.40;2.10;;;-0.60;99.90;-1.00;101450.00;;;;4962350;28;99737;-66
2022/03/07 05:46:29;;;;;;;3.53;2.60;;;-0.70;99.90;-1.10;101448.00;;;;4955902;28;92693;-66
2022/03/07 05:48:57;;;;;;;3.67;2.47;;;-0.70;99.90;-1.20;101458.00;;;;4953265;28;109412;-66
2022/03/07 05:51:24;;;;;;;2.20;1.77;;;-0.80;99.90;-1.30;101458.00;;;;4953901;28;87077;-66
2022/03/07 05:53:51;;;;;;;3.77;2.20;;;-0.80;99.90;-1.30;101456.00;;;;4952713;28;88682;-66
2022/03/07 05:56:18;;;;;;;2.63;2.10;;;-0.90;99.90;-1.40;101464.00;;;;4952606;28;103010;-66
2022/03/07 05:58:44;;;;;;;2.17;1.97;;;-0.10;99.90;-1.40;101463.00;;;;4953518;28;88999;-67
2022/03/07 06:01:10;;;;;;;3.03;2.00;;;-1.00;99.90;-1.40;101456.00;;;;4952372;28;87900;-66
2022/03/07 06:03:35;;;;;;;3.47;2.10;;;-0.70;99.90;-1.50;101453.00;;;;4952797;28;107743;-66
2022/03/07 06:06:01;;;;;;;3.20;2.50;;;-1.10;99.90;-1.40;101451.00;;;;4952708;28;116954;-67
2022/03/07 06:08:27;;;;;;;3.53;1.77;;;-1.00;99.90;-1.40;101470.00;;;;4952974;28;111489;-67
2022/03/07 06:10:52;;;;;;;2.53;2.13;;;-0.90;99.90;-1.30;101454.00;;;;4953075;28;109064;-66
2022/03/07 06:13:19;;;;;;;3.07;2.00;;;-0.90;99.90;-1.20;101459.00;;;;4956544;28;103817;-67
2022/03/07 06:15:45;;;;;;;2.83;2.20;;;-0.90;99.90;-1.00;101473.00;;;;4956789;28;88526;-66
2022/03/07 06:18:11;;;;;;;5.53;2.87;;;-0.10;99.90;-0.90;101473.00;;;;4957172;28;94981;-66
2022/03/07 06:20:38;;;;;;;2.97;2.57;;;-0.60;99.90;-0.80;101469.00;;;;4957492;28;88090;-66
2022/03/07 06:23:04;;;;;;;2.23;2.03;;;-0.50;99.90;-0.60;101480.00;;;;4956738;28;90565;-66
2022/03/07 06:25:33;;;;;;;2.77;1.97;;;0.50;99.90;-0.60;101473.00;;;;4956577;28;89070;-66
2022/03/07 06:28:03;;;;;;;3.17;2.27;;;-0.30;99.90;-0.50;101477.00;;;;4958509;28;87626;-67
2022/03/07 06:30:30;;;;;;;3.30;2.70;;;-0.10;99.90;-0.30;101480.00;;;;4960931;28;87697;-66
2022/03/07 06:32:56;;;;;;;2.93;2.37;;;0.00;99.90;-0.20;101479.00;;;;4959207;28;88578;-67
2022/03/07 06:35:22;;;;;;;3.23;2.93;;;0.10;99.90;0.00;101486.00;;;;4955528;28;117836;-67
2022/03/07 06:37:50;;;;;;;3.27;2.70;;;0.30;99.90;0.20;101482.00;;;;4957623;28;87566;-67
2022/03/07 06:40:18;;;;;;;2.93;2.63;;;1.10;99.90;0.40;101490.00;;;;4957474;28;87086;-67
2022/03/07 06:42:46;;;;;;;3.90;2.63;;;1.40;99.90;0.60;101481.00;;;;4951478;28;88472;-67
2022/03/07 06:45:13;;;;;;;3.07;2.77;;;1.00;99.90;0.80;101481.00;;;;4954829;28;88660;-67
2022/03/07 06:47:40;;;;;;;4.40;2.50;;;1.10;99.90;1.00;101488.00;;;;4961906;28;88671;-67
2022/03/07 06:50:06;;;;;;;2.90;2.20;;;1.20;99.90;1.20;101491.00;;;;4958161;28;99002;-67
2022/03/07 06:52:32;;;;;;;3.53;3.00;;;1.40;99.90;1.40;101487.00;;;;4957015;28;88629;-67
2022/03/07 06:54:58;;;;;;;4.33;2.23;;;2.40;99.90;1.50;101502.00;;;;4955407;28;116317;-67
2022/03/07 06:57:23;;;;;;;4.30;2.97;;;1.80;99.90;1.70;101493.00;;;;4956155;28;112291;-66
2022/03/07 06:59:50;;;;;;;4.07;2.87;;;1.20;99.90;1.90;101496.00;;;;4955960;28;108737;-67
2022/03/07 07:02:16;;;;;;;4.40;2.80;;;2.10;99.90;2.10;101497.00;;;;4955746;28;118032;-68
2022/03/07 07:04:41;;;;;;;3.87;2.83;;;2.40;99.90;2.20;101484.00;;;;4956192;28;91070;-68
2022/03/07 07:07:07;;;;;;;4.13;2.83;;;2.40;99.90;2.50;101497.00;;;;4956882;28;98249;-67
2022/03/07 07:09:33;;;;;;;3.67;2.70;;;2.60;99.90;2.70;101490.00;;;;4956676;28;109345;-68
2022/03/07 07:11:59;;;;;;;3.57;2.33;;;2.90;99.90;2.90;101494.00;;;;4954885;28;112783;-67
2022/03/07 07:14:25;;;;;;;4.70;2.30;;;3.10;99.90;3.10;101501.00;;;;4956246;28;89141;-68
2022/03/07 07:16:50;;;;;;;4.80;2.40;;;3.40;99.90;3.40;101494.00;;;;4953494;28;109612;-68
2022/03/07 07:19:16;;;;;;;2.27;2.10;;;3.60;99.70;3.60;101492.00;;;;4955886;28;108886;-68
2022/03/07 07:21:42;;;;;;;3.00;2.43;;;3.80;98.60;3.80;101492.00;;;;4955044;28;117187;-68
2022/03/07 07:24:08;;;;;;;4.77;2.73;;;4.00;98.20;4.10;101496.00;;;;4955504;28;117098;-68
2022/03/07 07:26:33;;;;;;;3.57;2.50;;;4.30;97.60;4.30;101489.00;;;;4954815;28;102122;-69
2022/03/07 07:28:59;;;;;;;3.40;2.40;;;4.50;96.60;4.50;101498.00;;;;4955408;28;87012;-67
2022/03/07 07:31:25;;;;;;;3.37;2.73;;;4.70;95.40;4.70;101490.00;;;;4953119;28;117116;-67
2022/03/07 07:33:50;;;;;;;3.03;2.60;;;4.90;94.90;5.00;101490.00;;;;4955664;28;115932;-66
2022/03/07 07:36:16;;;;;;;3.80;2.70;;;5.10;94.20;5.20;101500.00;;;;4954263;28;111127;-67
2022/03/07 07:38:42;;;;;;;7.33;3.27;;;5.30;93.40;5.40;101511.00;;;;4954692;28;87916;-68
2022/03/07 07:41:08;;;;;;;4.13;2.73;;;5.60;92.60;5.60;101512.00;;;;4953147;28;117576;-67
2022/03/07 07:43:34;;;;;;;4.17;2.77;;;5.80;91.70;5.80;101527.00;;;;4955736;28;88655;-67
2022/03/07 07:45:59;;;;;;;5.27;2.50;;;6.50;90.30;6.00;101526.00;;;;4955839;28;87613;-66
2022/03/07 07:48:25;;;;;;;4.00;2.30;;;6.20;90.10;6.30;101518.00;;;;4955139;28;108794;-66
2022/03/07 07:50:51;;;;;;;3.00;2.37;;;6.40;88.20;6.60;101524.00;;;;4956221;28;89012;-67
2022/03/07 07:53:17;;;;;;;4.17;2.40;;;6.70;86.60;6.80;101523.00;;;;4955581;28;116974;-67
2022/03/07 07:55:43;;;;;;;3.17;2.20;;;6.90;85.00;7.10;101536.00;;;;4954202;28;108776;-68
2022/03/07 07:58:08;;;;;;;2.97;2.03;;;7.20;84.90;7.50;101525.00;;;;4956220;28;87862;-67
2022/03/07 08:00:34;;;;;;;3.90;2.17;;;7.50;83.20;7.60;101526.00;;;;4954178;28;117692;-67
2022/03/07 08:03:00;;;;;;;5.30;2.57;;;7.70;77.50;7.60;101530.00;;;;4955228;28;118629;-68
2022/03/07 08:05:26;;;;;;;3.70;2.53;;;7.40;76.30;7.70;101527.00;;;;4954549;28;109552;-68
2022/03/07 08:07:51;;;;;;;4.33;3.07;;;7.90;75.80;7.50;101523.00;;;;4956412;28;87688;-67
2022/03/07 08:10:18;;;;;;;3.77;2.53;;;7.80;73.70;7.50;101529.00;;;;4955618;28;88254;-67
2022/03/07 08:12:46;;;;;;;4.57;1.93;;;7.80;73.90;7.60;101529.00;;;;4955780;28;87795;-68
2022/03/07 08:15:12;;;;;;;2.20;1.97;;;7.80;73.40;7.60;101531.00;;;;4955160;28;88121;-66
2022/03/07 08:17:50;;;;;;;3.57;1.90;;;7.70;73.00;7.50;101530.00;;;;4955047;28;86746;-68
2022/03/07 08:20:18;;;;;;;4.63;2.37;;;7.70;71.60;7.40;101521.00;;;;4953855;28;88514;-67
2022/03/07 08:22:44;;;;;;;1.97;1.87;;;7.60;70.80;7.20;101530.00;;;;4955545;28;87660;-66
2022/03/07 08:25:11;;;;;;;3.73;2.43;;;7.50;70.20;7.30;101529.00;;;;4954862;28;88687;-66
2022/03/07 08:27:37;;;;;;;2.67;1.83;;;7.50;70.80;7.40;101522.00;;;;4955413;28;87891;-67
2022/03/07 08:30:07;;;;;;;2.83;2.20;;;7.50;71.00;7.60;101520.00;;;;4955251;28;104013;-66
2022/03/07 08:32:34;;;;;;;4.27;2.40;;;7.70;71.80;8.00;101529.00;;;;4956032;28;87854;-67
2022/03/07 08:35:00;;;;;;;6.73;2.53;;;7.90;72.10;8.20;101516.00;;;;4955275;28;87716;-68
2022/03/07 08:37:25;;;;;;;3.30;2.43;;;8.20;71.70;8.50;101524.00;;;;4954940;28;88706;-67
2022/03/07 08:39:51;;;;;;;4.80;2.57;;;8.40;71.10;8.90;101520.00;;;;4954800;28;117646;-67
2022/03/07 08:42:17;;;;;;;3.50;2.17;;;8.70;71.00;9.20;101529.00;;;;4954544;28;117487;-66
2022/03/07 08:44:43;;;;;;;5.20;2.23;;;9.00;70.20;9.40;101523.00;;;;4954643;28;87894;-67
2022/03/07 08:47:09;;;;;;;4.10;2.53;;;9.30;67.70;9.60;101517.00;;;;4955537;28;87868;-67
2022/03/07 08:49:35;;;;;;;5.60;2.97;;;9.60;67.10;9.60;101525.00;;;;4955005;28;89552;-66
2022/03/07 08:52:01;;;;;;;2.40;2.20;;;9.70;64.90;9.60;101519.00;;;;4954435;28;117624;-67
2022/03/07 08:54:27;;;;;;;4.73;2.40;;;9.70;64.20;9.70;101514.00;;;;4953006;28;87936;-67
2022/03/07 08:56:52;;;;;;;3.23;2.30;;;9.70;64.30;9.90;101524.00;;;;4955455;28;87739;-67
2022/03/07 08:59:18;;;;;;;3.20;2.20;;;9.90;64.30;10.00;101508.00;;;;4954363;28;114546;-68
2022/03/07 09:01:44;;;;;;;4.53;2.40;;;10.10;61.40;10.00;101513.00;;;;4953687;28;118032;-67
2022/03/07 09:04:09;;;;;;;2.57;2.23;;;10.20;60.10;10.10;101517.00;;;;4954490;28;109360;-67
2022/03/07 09:06:35;;;;;;;2.60;1.93;;;10.20;60.50;10.10;101514.00;;;;4953613;28;108895;-67
2022/03/07 09:09:01;;;;;;;3.23;2.63;;;10.60;60.40;10.10;101525.00;;;;4954376;28;88888;-69
2022/03/07 09:11:27;;;;;;;3.63;2.30;;;10.20;60.00;10.20;101529.00;;;;4935850;28;88262;-67
2022/03/07 09:13:53;;;;;;;6.33;2.77;;;10.30;60.30;10.30;101520.00;;;;4953509;28;109090;-66
2022/03/07 09:16:19;;;;;;;2.17;1.93;;;10.40;59.20;10.30;101525.00;;;;4953977;28;87663;-66
2022/03/07 09:18:45;;;;;;;6.13;2.70;;;10.40;59.20;10.30;101511.00;;;;4954539;28;101688;-68
2022/03/07 09:21:10;;;;;;;3.07;2.20;;;10.40;59.10;10.30;101522.00;;;;4953227;28;117020;-67
2022/03/07 09:23:39;;;;;;;4.63;2.67;;;10.40;59.30;10.40;101519.00;;;;4953064;28;110536;-67
2022/03/07 09:26:11;;;;;;;4.10;2.67;;;10.40;59.50;10.50;101511.00;;;;4954261;28;87523;-66
2022/03/07 09:28:37;;;;;;;4.00;2.63;;;10.50;59.30;10.50;101510.00;;;;4954282;28;88053;-67
2022/03/07 09:31:03;;;;;;;3.70;2.47;;;10.50;58.60;10.30;101518.00;;;;4957958;28;88540;-67
2022/03/07 09:33:28;;;;;;;4.33;2.03;;;10.40;58.60;10.10;101515.00;;;;4957455;28;90883;-68
2022/03/07 09:35:55;;;;;;;3.37;2.63;;;10.20;59.30;9.90;101510.00;;;;4955682;28;88300;-67
2022/03/07 09:38:21;;;;;;;3.77;2.17;;;10.10;59.30;9.70;101513.00;;;;4956481;28;88943;-68
2022/03/07 09:40:47;;;;;;;4.53;2.80;;;9.90;59.50;9.80;101514.00;;;;4957319;28;96433;-68
2022/03/07 09:43:14;;;;;;;4.33;2.47;;;9.90;60.50;10.00;101506.00;;;;4956859;28;108696;-68
2022/03/07 09:45:41;;;;;;;2.70;1.77;;;10.00;60.60;10.40;101496.00;;;;4957943;28;88430;-68
2022/03/07 09:48:07;;;;;;;2.87;2.43;;;10.30;61.20;10.70;101504.00;;;;4957583;28;88890;-67
2022/03/07 09:50:33;;;;;;;5.50;3.33;;;10.70;60.00;10.90;101514.00;;;;4956903;28;117269;-68
2022/03/07 09:52:58;;;;;;;2.80;2.50;;;10.80;59.20;10.70;101503.00;;;;4956649;28;109540;-68
2022/03/07 09:55:24;;;;;;;3.00;2.20;;;10.80;58.30;10.60;101502.00;;;;4956808;28;109832;-65
2022/03/07 09:57:51;;;;;;;2.70;1.90;;;10.70;58.30;10.50;101505.00;;;;4953727;28;117477;-66
2022/03/07 10:00:17;;;;;;;2.67;2.07;;;10.60;58.60;10.60;101513.00;;;;4956297;28;117418;-66
2022/03/07 10:02:58;;;;;;;2.47;1.90;;;10.70;59.10;10.70;101509.00;;;;4956082;28;98884;-66
2022/03/07 10:05:31;;;;;;;4.90;2.80;;;10.70;59.20;10.90;101518.00;;;;4955199;28;87792;-66
2022/03/07 10:07:57;;;;;;;4.50;2.23;;;10.80;58.70;10.90;101502.00;;;;4957174;28;88292;-66
2022/03/07 10:10:37;;;;;;;1.47;1.37;;;10.90;58.50;11.00;101511.00;;;;4957012;28;88024;-65
2022/03/07 10:13:10;;;;;;;4.50;2.47;;;10.90;58.70;11.30;101506.00;;;;4957157;28;88116;-65
2022/03/07 10:15:38;;;;;;;7.30;2.50;;;11.10;58.80;11.20;101508.00;;;;4956807;28;88046;-66
2022/03/07 10:18:05;;;;;;;3.30;2.17;;;11.20;57.80;11.20;101517.00;;;;4954404;28;88143;-67
2022/03/07 10:20:31;;;;;;;2.77;2.53;;;11.20;58.10;11.20;101506.00;;;;4956835;28;98442;-66
2022/03/07 10:23:00;;;;;;;3.57;2.37;;;11.20;57.50;11.00;101506.00;;;;4957139;28;87887;-66
2022/03/07 10:25:32;;;;;;;5.53;2.40;;;11.10;57.50;10.90;101514.00;;;;4956794;28;87953;-68
2022/03/07 10:28:01;;;;;;;3.77;2.23;;;10.90;57.90;10.90;101502.00;;;;4956444;28;88909;-67
2022/03/07 10:30:32;;;;;;;4.27;2.90;;;10.90;58.50;10.90;101501.00;;;;4957236;28;88789;-65
2022/03/07 10:33:03;;;;;;;2.53;2.33;;;10.80;58.50;10.90;101497.00;;;;4957300;28;91303;-65
2022/03/07 10:35:34;;;;;;;7.10;2.60;;;11.60;59.10;10.90;101492.00;;;;4956884;28;88089;-65
2022/03/07 10:38:03;;;;;;;4.43;2.57;;;10.90;58.80;10.80;101496.00;;;;4954726;28;87717;-67
2022/03/07 10:40:32;;;;;;;5.93;3.00;;;10.80;58.60;10.50;101493.00;;;;4955876;28;105261;-67
2022/03/07 10:43:00;;;;;;;4.60;2.30;;;10.60;58.20;10.10;101481.00;;;;4959049;28;87723;-65
2022/03/07 10:45:28;;;;;;;5.37;2.67;;;10.30;58.30;9.80;101502.00;;;;4966513;28;87229;-67
2022/03/07 10:48:00;;;;;;;8.30;2.93;;;10.00;58.70;9.60;101501.00;;;;4957929;28;103093;-67
2022/03/07 10:50:28;;;;;;;3.77;2.07;;;9.70;59.00;9.30;101482.00;;;;4954839;28;87955;-66
2022/03/07 10:53:05;;;;;;;3.87;2.57;;;9.50;59.40;9.60;101483.00;;;;4955949;28;88692;-66